Terminal Aerodrome Forecast
Issued by NWS

Current Version | Previous Version | Text Only | Print | Product List | Glossary On
Versions: 1 2 3 4 5 6 7 8 9 10 11 12
000
FTUS42 TJSJ 301139
TAFKPK
TAF
TKPK 301139Z 3012/3112 06012KT P6SM FEW019
     FM301330 09013KT P6SM VCSH SCT022 SCT040
     FM302300 10010KT P6SM VCSH SCT018 SCT035=

USA.gov is the U.S. government's official web portal to all federal, state and local government web resources and services.